sensor_id;sensor_type;location;lat;lon;timestamp;pressure;altitude;pressure_sealevel;temperature;humidity
81999;BME280;71598;46.516;-122.928;2023-12-07T00:36:42;99234.00;;;14.73;36.73
81999;BME280;71598;46.516;-122.928;2023-12-07T00:39:07;99229.35;;;16.80;30.53
81999;BME280;71598;46.516;-122.928;2023-12-07T00:41:32;99225.09;;;18.68;27.23
81999;BME280;71598;46.516;-122.928;2023-12-07T00:43:57;99228.37;;;19.86;25.73
81999;BME280;71598;46.516;-122.928;2023-12-07T00:46:22;99225.63;;;20.30;25.06
81999;BME280;71598;46.516;-122.928;2023-12-07T00:48:48;99223.83;;;20.12;24.70
81999;BME280;71598;46.516;-122.928;2023-12-07T00:51:15;99227.53;;;20.39;24.51
81999;BME280;71598;46.516;-122.928;2023-12-07T00:53:42;99225.01;;;20.37;24.38
81999;BME280;71598;46.516;-122.928;2023-12-07T00:56:04;99225.31;;;20.39;24.37
81999;BME280;71598;46.516;-122.928;2023-12-07T00:58:29;99222.70;;;20.24;24.40
81999;BME280;71598;46.516;-122.928;2023-12-07T01:00:55;99224.38;;;20.37;24.37
81999;BME280;71598;46.516;-122.928;2023-12-07T01:03:20;99224.68;;;20.41;24.34
81999;BME280;71598;46.516;-122.928;2023-12-07T01:05:46;99226.68;;;20.31;24.16
81999;BME280;71598;46.516;-122.928;2023-12-07T01:08:12;99228.83;;;20.37;23.93
81999;BME280;71598;46.516;-122.928;2023-12-07T01:10:36;99229.44;;;20.88;23.83
81999;BME280;71598;46.516;-122.928;2023-12-07T01:13:02;99226.06;;;20.36;23.87
81999;BME280;71598;46.516;-122.928;2023-12-07T01:15:27;99223.76;;;20.67;23.96
81999;BME280;71598;46.516;-122.928;2023-12-07T01:17:53;99222.39;;;20.68;24.01
81999;BME280;71598;46.516;-122.928;2023-12-07T01:20:18;99225.58;;;20.52;24.15
81999;BME280;71598;46.516;-122.928;2023-12-07T01:22:43;99226.47;;;20.62;24.28
81999;BME280;71598;46.516;-122.928;2023-12-07T01:25:09;99228.56;;;20.20;24.29
81999;BME280;71598;46.516;-122.928;2023-12-07T01:27:35;99228.47;;;20.52;24.33
81999;BME280;71598;46.516;-122.928;2023-12-07T01:29:59;99229.61;;;20.51;24.38
81999;BME280;71598;46.516;-122.928;2023-12-07T01:32:25;99228.81;;;20.56;24.36
81999;BME280;71598;46.516;-122.928;2023-12-07T01:34:50;99229.06;;;20.62;24.37
81999;BME280;71598;46.516;-122.928;2023-12-07T01:37:17;99229.94;;;20.46;24.42
81999;BME280;71598;46.516;-122.928;2023-12-07T01:39:42;99227.51;;;20.48;24.43
81999;BME280;71598;46.516;-122.928;2023-12-07T01:42:09;99225.16;;;20.39;24.43
81999;BME280;71598;46.516;-122.928;2023-12-07T01:44:32;99222.24;;;20.34;24.44
81999;BME280;71598;46.516;-122.928;2023-12-07T01:46:58;99220.24;;;20.75;24.24
81999;BME280;71598;46.516;-122.928;2023-12-07T01:49:23;99220.68;;;20.96;24.17
81999;BME280;71598;46.516;-122.928;2023-12-07T01:51:50;99223.44;;;20.55;24.07
81999;BME280;71598;46.516;-122.928;2023-12-07T01:54:14;99219.55;;;20.92;24.03
81999;BME280;71598;46.516;-122.928;2023-12-07T01:56:40;99217.63;;;20.84;24.02
81999;BME280;71598;46.516;-122.928;2023-12-07T01:59:06;99217.06;;;20.74;24.00
81999;BME280;71598;46.516;-122.928;2023-12-07T02:01:31;99221.55;;;20.79;23.99
81999;BME280;71598;46.516;-122.928;2023-12-07T02:03:57;99222.69;;;21.16;23.98
81999;BME280;71598;46.516;-122.928;2023-12-07T02:06:22;99221.72;;;21.17;23.98
81999;BME280;71598;46.516;-122.928;2023-12-07T02:08:48;99220.77;;;20.89;23.98
81999;BME280;71598;46.516;-122.928;2023-12-07T02:11:13;99222.10;;;20.83;24.05
81999;BME280;71598;46.516;-122.928;2023-12-07T02:13:40;99223.41;;;20.81;24.04
81999;BME280;71598;46.516;-122.928;2023-12-07T02:16:11;99224.00;;;20.78;24.05
81999;BME280;71598;46.516;-122.928;2023-12-07T02:18:36;99228.46;;;20.94;24.11
81999;BME280;71598;46.516;-122.928;2023-12-07T02:21:01;99229.61;;;20.85;24.09
81999;BME280;71598;46.516;-122.928;2023-12-07T02:23:22;99227.97;;;20.93;24.10
81999;BME280;71598;46.516;-122.928;2023-12-07T02:25:51;99225.32;;;21.02;23.91
81999;BME280;71598;46.516;-122.928;2023-12-07T02:28:11;99225.78;;;21.01;23.84
81999;BME280;71598;46.516;-122.928;2023-12-07T02:30:37;99229.57;;;21.01;23.76
81999;BME280;71598;46.516;-122.928;2023-12-07T02:33:03;99229.65;;;21.03;23.82
81999;BME280;71598;46.516;-122.928;2023-12-07T02:35:29;99228.25;;;20.90;23.81
81999;BME280;71598;46.516;-122.928;2023-12-07T02:37:54;99230.46;;;20.98;23.86
81999;BME280;71598;46.516;-122.928;2023-12-07T02:40:23;99229.47;;;21.13;23.88
81999;BME280;71598;46.516;-122.928;2023-12-07T02:42:46;99229.47;;;20.78;23.88
81999;BME280;71598;46.516;-122.928;2023-12-07T02:45:11;99226.26;;;21.03;23.85
81999;BME280;71598;46.516;-122.928;2023-12-07T02:47:36;99230.79;;;20.83;23.85
81999;BME280;71598;46.516;-122.928;2023-12-07T02:50:01;99228.49;;;20.80;23.98
81999;BME280;71598;46.516;-122.928;2023-12-07T02:52:26;99231.79;;;20.90;23.96
81999;BME280;71598;46.516;-122.928;2023-12-07T02:54:52;99230.07;;;20.89;23.97
81999;BME280;71598;46.516;-122.928;2023-12-07T02:57:17;99232.58;;;20.97;24.09
81999;BME280;71598;46.516;-122.928;2023-12-07T02:59:42;99230.68;;;20.71;24.21
81999;BME280;71598;46.516;-122.928;2023-12-07T03:02:07;99227.34;;;20.50;24.25
81999;BME280;71598;46.516;-122.928;2023-12-07T03:04:33;99228.71;;;20.97;24.15
81999;BME280;71598;46.516;-122.928;2023-12-07T03:07:00;99233.73;;;20.92;24.06
81999;BME280;71598;46.516;-122.928;2023-12-07T03:09:29;99229.10;;;20.85;23.94
81999;BME280;71598;46.516;-122.928;2023-12-07T03:11:51;99233.79;;;21.16;23.90
81999;BME280;71598;46.516;-122.928;2023-12-07T03:14:15;99233.40;;;21.23;23.89
81999;BME280;71598;46.516;-122.928;2023-12-07T03:16:42;99235.46;;;21.12;23.87
81999;BME280;71598;46.516;-122.928;2023-12-07T03:19:06;99236.63;;;20.95;23.90
81999;BME280;71598;46.516;-122.928;2023-12-07T03:21:31;99240.41;;;20.87;23.94
81999;BME280;71598;46.516;-122.928;2023-12-07T03:23:56;99238.52;;;20.91;23.98
81999;BME280;71598;46.516;-122.928;2023-12-07T03:26:22;99232.54;;;20.90;23.97
81999;BME280;71598;46.516;-122.928;2023-12-07T03:28:48;99232.20;;;21.16;23.97
81999;BME280;71598;46.516;-122.928;2023-12-07T03:31:18;99230.15;;;21.21;24.01
81999;BME280;71598;46.516;-122.928;2023-12-07T03:33:38;99232.56;;;20.61;24.35
81999;BME280;71598;46.516;-122.928;2023-12-07T03:36:10;99232.84;;;20.66;24.61
81999;BME280;71598;46.516;-122.928;2023-12-07T03:38:30;99238.95;;;20.34;24.85
81999;BME280;71598;46.516;-122.928;2023-12-07T03:40:57;99242.01;;;19.92;25.14
81999;BME280;71598;46.516;-122.928;2023-12-07T03:43:22;99242.98;;;20.08;25.29
81999;BME280;71598;46.516;-122.928;2023-12-07T03:45:46;99245.55;;;19.87;25.35
81999;BME280;71598;46.516;-122.928;2023-12-07T03:48:12;99245.76;;;20.13;25.30
81999;BME280;71598;46.516;-122.928;2023-12-07T03:50:36;99249.45;;;20.30;25.34
81999;BME280;71598;46.516;-122.928;2023-12-07T03:53:01;99250.73;;;19.68;25.44
81999;BME280;71598;46.516;-122.928;2023-12-07T03:55:27;99250.46;;;19.97;25.54
81999;BME280;71598;46.516;-122.928;2023-12-07T03:57:52;99253.42;;;19.56;25.71
81999;BME280;71598;46.516;-122.928;2023-12-07T04:00:18;99252.64;;;19.69;25.69
81999;BME280;71598;46.516;-122.928;2023-12-07T04:02:50;99255.41;;;19.56;25.69
81999;BME280;71598;46.516;-122.928;2023-12-07T04:05:09;99256.72;;;19.65;25.69
81999;BME280;71598;46.516;-122.928;2023-12-07T04:07:34;99257.79;;;19.74;25.60
81999;BME280;71598;46.516;-122.928;2023-12-07T04:10:00;99258.14;;;19.88;25.48
81999;BME280;71598;46.516;-122.928;2023-12-07T04:12:23;99262.44;;;19.91;25.36
81999;BME280;71598;46.516;-122.928;2023-12-07T04:14:49;99263.53;;;20.23;25.22
81999;BME280;71598;46.516;-122.928;2023-12-07T04:17:15;99265.30;;;20.23;25.11
81999;BME280;71598;46.516;-122.928;2023-12-07T04:19:40;99268.02;;;20.55;24.98
81999;BME280;71598;46.516;-122.928;2023-12-07T04:22:06;99268.68;;;20.59;24.78
81999;BME280;71598;46.516;-122.928;2023-12-07T04:24:32;99268.30;;;20.58;24.61
81999;BME280;71598;46.516;-122.928;2023-12-07T04:26:56;99263.43;;;20.76;24.49
81999;BME280;71598;46.516;-122.928;2023-12-07T04:29:22;99262.27;;;21.00;24.37
81999;BME280;71598;46.516;-122.928;2023-12-07T04:31:48;99264.41;;;21.01;24.33
81999;BME280;71598;46.516;-122.928;2023-12-07T04:34:14;99261.73;;;20.80;24.24
81999;BME280;71598;46.516;-122.928;2023-12-07T04:36:38;99260.65;;;21.04;24.20
81999;BME280;71598;46.516;-122.928;2023-12-07T04:39:04;99259.35;;;20.95;24.14
81999;BME280;71598;46.516;-122.928;2023-12-07T04:41:31;99256.37;;;20.94;24.10
81999;BME280;71598;46.516;-122.928;2023-12-07T04:43:57;99253.16;;;21.09;24.08
81999;BME280;71598;46.516;-122.928;2023-12-07T04:46:21;99251.37;;;20.99;24.09
81999;BME280;71598;46.516;-122.928;2023-12-07T04:48:47;99255.56;;;20.76;24.08
81999;BME280;71598;46.516;-122.928;2023-12-07T04:51:12;99256.16;;;21.11;24.09
81999;BME280;71598;46.516;-122.928;2023-12-07T04:53:38;99261.11;;;20.90;24.06
81999;BME280;71598;46.516;-122.928;2023-12-07T04:56:04;99262.32;;;20.99;24.06
81999;BME280;71598;46.516;-122.928;2023-12-07T04:58:28;99264.76;;;20.86;24.07
81999;BME280;71598;46.516;-122.928;2023-12-07T05:00:54;99265.36;;;21.00;24.05
81999;BME280;71598;46.516;-122.928;2023-12-07T05:03:20;99266.57;;;21.10;23.94
81999;BME280;71598;46.516;-122.928;2023-12-07T05:05:45;99268.02;;;21.28;23.89
81999;BME280;71598;46.516;-122.928;2023-12-07T05:08:11;99272.66;;;21.34;23.74
81999;BME280;71598;46.516;-122.928;2023-12-07T05:10:36;99275.39;;;21.09;23.63
81999;BME280;71598;46.516;-122.928;2023-12-07T05:13:02;99276.69;;;21.20;23.62
81999;BME280;71598;46.516;-122.928;2023-12-07T05:15:27;99271.70;;;21.26;23.64
81999;BME280;71598;46.516;-122.928;2023-12-07T05:17:52;99268.24;;;21.10;23.64
81999;BME280;71598;46.516;-122.928;2023-12-07T05:20:18;99268.10;;;21.25;23.69
81999;BME280;71598;46.516;-122.928;2023-12-07T05:22:42;99271.03;;;21.41;23.68
81999;BME280;71598;46.516;-122.928;2023-12-07T05:25:08;99272.80;;;20.92;23.68
81999;BME280;71598;46.516;-122.928;2023-12-07T05:27:33;99276.25;;;21.17;23.71
81999;BME280;71598;46.516;-122.928;2023-12-07T05:30:04;99281.27;;;21.13;23.63
81999;BME280;71598;46.516;-122.928;2023-12-07T05:32:25;99281.06;;;21.06;23.67
81999;BME280;71598;46.516;-122.928;2023-12-07T05:34:49;99279.68;;;21.24;23.71
81999;BME280;71598;46.516;-122.928;2023-12-07T05:37:15;99278.79;;;20.85;23.73
81999;BME280;71598;46.516;-122.928;2023-12-07T05:39:40;99281.24;;;20.79;23.76
81999;BME280;71598;46.516;-122.928;2023-12-07T05:42:07;99281.98;;;20.86;23.78
81999;BME280;71598;46.516;-122.928;2023-12-07T05:44:32;99279.51;;;20.76;23.75
81999;BME280;71598;46.516;-122.928;2023-12-07T05:46:56;99279.76;;;21.19;23.70
81999;BME280;71598;46.516;-122.928;2023-12-07T05:49:22;99283.54;;;21.06;23.71
81999;BME280;71598;46.516;-122.928;2023-12-07T05:51:47;99285.69;;;21.08;23.68
81999;BME280;71598;46.516;-122.928;2023-12-07T05:54:12;99286.47;;;21.07;23.64
81999;BME280;71598;46.516;-122.928;2023-12-07T05:56:38;99287.91;;;21.09;23.61
81999;BME280;71598;46.516;-122.928;2023-12-07T05:59:04;99288.04;;;21.04;23.59
81999;BME280;71598;46.516;-122.928;2023-12-07T06:01:30;99291.35;;;21.10;23.60
81999;BME280;71598;46.516;-122.928;2023-12-07T06:03:55;99289.67;;;20.91;23.62
81999;BME280;71598;46.516;-122.928;2023-12-07T06:06:21;99296.83;;;21.06;23.50
81999;BME280;71598;46.516;-122.928;2023-12-07T06:08:46;99296.80;;;21.08;23.69
81999;BME280;71598;46.516;-122.928;2023-12-07T06:11:12;99296.87;;;20.72;23.70
81999;BME280;71598;46.516;-122.928;2023-12-07T06:13:39;99299.79;;;20.74;23.74
81999;BME280;71598;46.516;-122.928;2023-12-07T06:16:03;99299.38;;;20.81;23.75
81999;BME280;71598;46.516;-122.928;2023-12-07T06:18:28;99299.31;;;20.88;23.75
81999;BME280;71598;46.516;-122.928;2023-12-07T06:20:55;99300.58;;;20.85;23.76
81999;BME280;71598;46.516;-122.928;2023-12-07T06:23:19;99299.59;;;20.54;23.79
81999;BME280;71598;46.516;-122.928;2023-12-07T06:25:44;99300.20;;;20.64;23.77
81999;BME280;71598;46.516;-122.928;2023-12-07T06:28:10;99300.64;;;20.75;23.76
81999;BME280;71598;46.516;-122.928;2023-12-07T06:30:36;99302.42;;;20.74;23.77
81999;BME280;71598;46.516;-122.928;2023-12-07T06:33:01;99304.05;;;20.73;23.76
81999;BME280;71598;46.516;-122.928;2023-12-07T06:35:28;99310.33;;;20.76;23.80
81999;BME280;71598;46.516;-122.928;2023-12-07T06:37:52;99312.20;;;20.30;23.85
81999;BME280;71598;46.516;-122.928;2023-12-07T06:40:17;99311.52;;;20.45;23.89
81999;BME280;71598;46.516;-122.928;2023-12-07T06:42:46;99316.03;;;20.39;23.96
81999;BME280;71598;46.516;-122.928;2023-12-07T06:45:10;99317.54;;;20.46;23.86
81999;BME280;71598;46.516;-122.928;2023-12-07T06:47:34;99316.97;;;20.51;23.96
81999;BME280;71598;46.516;-122.928;2023-12-07T06:49:59;99318.64;;;20.24;23.95
81999;BME280;71598;46.516;-122.928;2023-12-07T06:52:26;99318.76;;;20.41;23.98
81999;BME280;71598;46.516;-122.928;2023-12-07T06:54:58;99316.75;;;20.49;23.98
81999;BME280;71598;46.516;-122.928;2023-12-07T06:57:15;99314.89;;;20.35;23.99
81999;BME280;71598;46.516;-122.928;2023-12-07T06:59:40;99317.77;;;20.29;24.00
81999;BME280;71598;46.516;-122.928;2023-12-07T07:02:06;99320.61;;;20.31;24.04
81999;BME280;71598;46.516;-122.928;2023-12-07T07:04:31;99322.64;;;20.37;24.11
81999;BME280;71598;46.516;-122.928;2023-12-07T07:06:56;99325.98;;;20.02;24.07
81999;BME280;71598;46.516;-122.928;2023-12-07T07:09:22;99326.57;;;20.12;24.23
81999;BME280;71598;46.516;-122.928;2023-12-07T07:11:49;99328.64;;;19.91;24.28
81999;BME280;71598;46.516;-122.928;2023-12-07T07:14:14;99333.30;;;20.07;24.29
81999;BME280;71598;46.516;-122.928;2023-12-07T07:16:39;99330.23;;;19.89;24.33
81999;BME280;71598;46.516;-122.928;2023-12-07T07:19:04;99326.74;;;19.80;24.35
81999;BME280;71598;46.516;-122.928;2023-12-07T07:21:30;99324.75;;;19.69;24.48
81999;BME280;71598;46.516;-122.928;2023-12-07T07:23:55;99313.67;;;19.67;24.46
81999;BME280;71598;46.516;-122.928;2023-12-07T07:26:24;99302.38;;;19.28;24.43
81999;BME280;71598;46.516;-122.928;2023-12-07T07:28:46;99301.55;;;19.21;24.56
81999;BME280;71598;46.516;-122.928;2023-12-07T07:31:12;99310.22;;;19.55;24.56
81999;BME280;71598;46.516;-122.928;2023-12-07T07:33:36;99317.60;;;19.40;24.58
81999;BME280;71598;46.516;-122.928;2023-12-07T07:36:02;99325.96;;;19.55;24.59
81999;BME280;71598;46.516;-122.928;2023-12-07T07:38:27;99328.75;;;19.33;24.59
81999;BME280;71598;46.516;-122.928;2023-12-07T07:40:52;99325.98;;;19.41;24.59
81999;BME280;71598;46.516;-122.928;2023-12-07T07:43:19;99311.96;;;19.69;24.59
81999;BME280;71598;46.516;-122.928;2023-12-07T07:45:44;99327.38;;;19.38;24.59
81999;BME280;71598;46.516;-122.928;2023-12-07T07:48:09;99323.18;;;19.49;24.57
81999;BME280;71598;46.516;-122.928;2023-12-07T07:50:34;99322.21;;;19.50;24.53
81999;BME280;71598;46.516;-122.928;2023-12-07T07:53:00;99325.24;;;19.77;24.53
81999;BME280;71598;46.516;-122.928;2023-12-07T07:55:27;99333.28;;;19.42;24.54
81999;BME280;71598;46.516;-122.928;2023-12-07T07:57:51;99335.37;;;19.26;24.56
81999;BME280;71598;46.516;-122.928;2023-12-07T08:00:16;99336.78;;;18.09;24.51
81999;BME280;71598;46.516;-122.928;2023-12-07T08:02:41;99338.14;;;19.43;24.46
81999;BME280;71598;46.516;-122.928;2023-12-07T08:05:07;99340.59;;;19.42;24.51
81999;BME280;71598;46.516;-122.928;2023-12-07T08:07:32;99338.80;;;19.63;24.55
81999;BME280;71598;46.516;-122.928;2023-12-07T08:09:58;99338.04;;;19.25;24.58
81999;BME280;71598;46.516;-122.928;2023-12-07T08:12:22;99340.17;;;19.51;24.59
81999;BME280;71598;46.516;-122.928;2023-12-07T08:14:48;99342.54;;;19.54;24.55
81999;BME280;71598;46.516;-122.928;2023-12-07T08:17:13;99342.18;;;19.60;24.50
81999;BME280;71598;46.516;-122.928;2023-12-07T08:19:41;99345.07;;;19.46;24.42
81999;BME280;71598;46.516;-122.928;2023-12-07T08:22:05;99345.00;;;19.42;24.36
81999;BME280;71598;46.516;-122.928;2023-12-07T08:24:30;99348.97;;;19.57;24.30
81999;BME280;71598;46.516;-122.928;2023-12-07T08:26:56;99355.27;;;19.26;24.28
81999;BME280;71598;46.516;-122.928;2023-12-07T08:29:21;99358.97;;;19.77;24.18
81999;BME280;71598;46.516;-122.928;2023-12-07T08:31:47;99354.46;;;19.58;24.22
81999;BME280;71598;46.516;-122.928;2023-12-07T08:34:12;99356.85;;;19.30;24.25
81999;BME280;71598;46.516;-122.928;2023-12-07T08:36:37;99358.31;;;19.23;24.25
81999;BME280;71598;46.516;-122.928;2023-12-07T08:39:02;99358.73;;;19.47;24.32
81999;BME280;71598;46.516;-122.928;2023-12-07T08:41:28;99360.84;;;19.60;24.35
81999;BME280;71598;46.516;-122.928;2023-12-07T08:43:55;99361.14;;;19.11;24.39
81999;BME280;71598;46.516;-122.928;2023-12-07T08:46:18;99357.13;;;19.26;24.40
81999;BME280;71598;46.516;-122.928;2023-12-07T08:48:43;99356.59;;;19.46;24.40
81999;BME280;71598;46.516;-122.928;2023-12-07T08:51:09;99358.90;;;19.25;24.40
81999;BME280;71598;46.516;-122.928;2023-12-07T08:53:34;99362.23;;;18.92;24.39
81999;BME280;71598;46.516;-122.928;2023-12-07T08:56:00;99355.10;;;19.17;24.39
81999;BME280;71598;46.516;-122.928;2023-12-07T08:58:25;99350.23;;;19.21;24.41
81999;BME280;71598;46.516;-122.928;2023-12-07T09:00:51;99353.68;;;19.17;24.40
81999;BME280;71598;46.516;-122.928;2023-12-07T09:03:17;99351.67;;;19.01;24.44
81999;BME280;71598;46.516;-122.928;2023-12-07T09:05:42;99346.87;;;19.12;24.46
81999;BME280;71598;46.516;-122.928;2023-12-07T09:08:08;99349.58;;;19.15;24.49
81999;BME280;71598;46.516;-122.928;2023-12-07T09:10:32;99358.42;;;18.98;24.49
81999;BME280;71598;46.516;-122.928;2023-12-07T09:12:58;99355.89;;;18.94;24.50
81999;BME280;71598;46.516;-122.928;2023-12-07T09:15:23;99349.13;;;18.88;24.51
81999;BME280;71598;46.516;-122.928;2023-12-07T09:17:49;99349.54;;;18.85;24.51
81999;BME280;71598;46.516;-122.928;2023-12-07T09:20:15;99347.56;;;18.93;24.52
81999;BME280;71598;46.516;-122.928;2023-12-07T09:22:42;99351.29;;;18.77;24.52
81999;BME280;71598;46.516;-122.928;2023-12-07T09:25:06;99352.42;;;18.84;24.55
81999;BME280;71598;46.516;-122.928;2023-12-07T09:27:31;99356.41;;;18.68;24.52
81999;BME280;71598;46.516;-122.928;2023-12-07T09:29:56;99356.66;;;18.63;24.52
81999;BME280;71598;46.516;-122.928;2023-12-07T09:32:21;99351.58;;;18.85;24.52
81999;BME280;71598;46.516;-122.928;2023-12-07T09:34:47;99352.23;;;18.73;24.52
81999;BME280;71598;46.516;-122.928;2023-12-07T09:37:12;99348.12;;;18.58;24.51
81999;BME280;71598;46.516;-122.928;2023-12-07T09:39:38;99337.02;;;18.80;24.52
81999;BME280;71598;46.516;-122.928;2023-12-07T09:42:03;99327.45;;;18.75;24.53
81999;BME280;71598;46.516;-122.928;2023-12-07T09:44:30;99330.06;;;18.61;24.52
81999;BME280;71598;46.516;-122.928;2023-12-07T09:46:55;99327.42;;;18.83;24.52
81999;BME280;71598;46.516;-122.928;2023-12-07T09:49:20;99342.27;;;18.50;24.50
81999;BME280;71598;46.516;-122.928;2023-12-07T09:51:47;99350.98;;;18.63;24.50
81999;BME280;71598;46.516;-122.928;2023-12-07T09:54:11;99361.43;;;18.53;24.43
81999;BME280;71598;46.516;-122.928;2023-12-07T09:56:36;99365.82;;;18.70;24.40
81999;BME280;71598;46.516;-122.928;2023-12-07T09:59:02;99367.38;;;18.82;24.37
81999;BME280;71598;46.516;-122.928;2023-12-07T10:01:29;99362.20;;;18.55;24.37
81999;BME280;71598;46.516;-122.928;2023-12-07T10:04:15;99372.12;;;18.71;24.40
81999;BME280;71598;46.516;-122.928;2023-12-07T10:06:19;99371.85;;;18.35;24.45
81999;BME280;71598;46.516;-122.928;2023-12-07T10:08:44;99382.27;;;18.53;24.48
81999;BME280;71598;46.516;-122.928;2023-12-07T10:11:11;99385.40;;;18.70;24.48
81999;BME280;71598;46.516;-122.928;2023-12-07T10:13:36;99387.91;;;18.58;24.46
81999;BME280;71598;46.516;-122.928;2023-12-07T10:16:11;99389.48;;;18.59;24.44
81999;BME280;71598;46.516;-122.928;2023-12-07T10:18:26;99392.98;;;18.80;24.42
81999;BME280;71598;46.516;-122.928;2023-12-07T10:20:52;99394.86;;;18.55;24.37
81999;BME280;71598;46.516;-122.928;2023-12-07T10:23:17;99403.83;;;18.74;24.42
81999;BME280;71598;46.516;-122.928;2023-12-07T10:25:43;99409.73;;;18.69;24.42
81999;BME280;71598;46.516;-122.928;2023-12-07T10:28:09;99403.56;;;18.54;24.43
81999;BME280;71598;46.516;-122.928;2023-12-07T10:30:34;99394.69;;;18.51;24.43
81999;BME280;71598;46.516;-122.928;2023-12-07T10:33:00;99383.09;;;18.68;24.36
81999;BME280;71598;46.516;-122.928;2023-12-07T10:35:25;99388.22;;;18.37;24.31
81999;BME280;71598;46.516;-122.928;2023-12-07T10:37:50;99391.58;;;18.28;24.38
81999;BME280;71598;46.516;-122.928;2023-12-07T10:40:15;99394.58;;;18.33;24.41
81999;BME280;71598;46.516;-122.928;2023-12-07T10:42:42;99397.22;;;18.49;24.43
81999;BME280;71598;46.516;-122.928;2023-12-07T10:45:08;99395.87;;;18.33;24.45
81999;BME280;71598;46.516;-122.928;2023-12-07T10:47:36;99406.64;;;18.86;24.46
81999;BME280;71598;46.516;-122.928;2023-12-07T10:50:01;99406.53;;;18.47;24.37
81999;BME280;71598;46.516;-122.928;2023-12-07T10:52:24;99405.00;;;18.46;24.44
81999;BME280;71598;46.516;-122.928;2023-12-07T10:54:53;99403.30;;;18.56;24.43
81999;BME280;71598;46.516;-122.928;2023-12-07T10:57:14;99409.35;;;18.52;24.44
81999;BME280;71598;46.516;-122.928;2023-12-07T10:59:41;99416.31;;;18.35;24.46
81999;BME280;71598;46.516;-122.928;2023-12-07T11:02:07;99420.03;;;18.44;24.46
81999;BME280;71598;46.516;-122.928;2023-12-07T11:04:31;99417.88;;;18.75;24.45
81999;BME280;71598;46.516;-122.928;2023-12-07T11:07:01;99416.23;;;18.62;24.45
81999;BME280;71598;46.516;-122.928;2023-12-07T11:09:25;99409.43;;;18.80;24.45
81999;BME280;71598;46.516;-122.928;2023-12-07T11:11:50;99411.80;;;18.44;24.45
81999;BME280;71598;46.516;-122.928;2023-12-07T11:14:14;99414.40;;;18.36;24.34
81999;BME280;71598;46.516;-122.928;2023-12-07T11:16:39;99418.17;;;18.50;24.43
81999;BME280;71598;46.516;-122.928;2023-12-07T11:19:04;99407.65;;;18.51;24.45
81999;BME280;71598;46.516;-122.928;2023-12-07T11:21:29;99416.11;;;18.17;24.45
81999;BME280;71598;46.516;-122.928;2023-12-07T11:23:54;99410.91;;;18.26;24.44
81999;BME280;71598;46.516;-122.928;2023-12-07T11:26:21;99415.40;;;18.36;24.43
81999;BME280;71598;46.516;-122.928;2023-12-07T11:28:45;99416.23;;;18.22;24.44
81999;BME280;71598;46.516;-122.928;2023-12-07T11:31:11;99423.19;;;18.41;24.44
81999;BME280;71598;46.516;-122.928;2023-12-07T11:33:38;99423.94;;;18.07;24.47
81999;BME280;71598;46.516;-122.928;2023-12-07T11:36:07;99413.02;;;18.28;24.48
81999;BME280;71598;46.516;-122.928;2023-12-07T11:38:26;99414.63;;;18.34;24.44
81999;BME280;71598;46.516;-122.928;2023-12-07T11:40:53;99414.86;;;18.25;24.41
81999;BME280;71598;46.516;-122.928;2023-12-07T11:43:19;99412.91;;;18.43;24.43
81999;BME280;71598;46.516;-122.928;2023-12-07T11:45:48;99414.01;;;18.22;24.43
81999;BME280;71598;46.516;-122.928;2023-12-07T11:48:11;99411.91;;;18.25;24.41
81999;BME280;71598;46.516;-122.928;2023-12-07T11:50:35;99408.77;;;18.59;24.31
81999;BME280;71598;46.516;-122.928;2023-12-07T11:53:01;99406.08;;;18.59;24.21
81999;BME280;71598;46.516;-122.928;2023-12-07T11:55:26;99408.46;;;18.25;24.16
81999;BME280;71598;46.516;-122.928;2023-12-07T11:57:52;99407.06;;;18.57;24.21
81999;BME280;71598;46.516;-122.928;2023-12-07T12:00:18;99406.35;;;18.66;24.21
81999;BME280;71598;46.516;-122.928;2023-12-07T12:02:42;99407.36;;;18.78;24.21
81999;BME280;71598;46.516;-122.928;2023-12-07T12:05:10;99405.90;;;18.10;24.19
81999;BME280;71598;46.516;-122.928;2023-12-07T12:07:33;99410.44;;;18.63;24.18
81999;BME280;71598;46.516;-122.928;2023-12-07T12:09:58;99416.86;;;18.54;24.18
81999;BME280;71598;46.516;-122.928;2023-12-07T12:12:24;99412.64;;;18.28;24.18
81999;BME280;71598;46.516;-122.928;2023-12-07T12:14:49;99409.48;;;18.27;24.20
81999;BME280;71598;46.516;-122.928;2023-12-07T12:17:16;99412.88;;;18.37;24.21
81999;BME280;71598;46.516;-122.928;2023-12-07T12:19:40;99407.88;;;18.44;24.24
81999;BME280;71598;46.516;-122.928;2023-12-07T12:22:05;99406.83;;;18.04;24.24
81999;BME280;71598;46.516;-122.928;2023-12-07T12:24:32;99408.99;;;18.79;24.24
81999;BME280;71598;46.516;-122.928;2023-12-07T12:26:57;99407.68;;;18.44;24.25
81999;BME280;71598;46.516;-122.928;2023-12-07T12:29:22;99410.42;;;18.40;24.26
81999;BME280;71598;46.516;-122.928;2023-12-07T12:31:47;99415.59;;;18.62;24.29
81999;BME280;71598;46.516;-122.928;2023-12-07T12:34:13;99419.94;;;18.48;24.30
81999;BME280;71598;46.516;-122.928;2023-12-07T12:36:38;99414.50;;;18.76;24.29
81999;BME280;71598;46.516;-122.928;2023-12-07T12:39:04;99407.11;;;18.60;24.29
81999;BME280;71598;46.516;-122.928;2023-12-07T12:41:29;99411.95;;;18.56;24.31
81999;BME280;71598;46.516;-122.928;2023-12-07T12:43:54;99412.38;;;18.13;24.31
81999;BME280;71598;46.516;-122.928;2023-12-07T12:46:21;99410.42;;;18.50;24.31
81999;BME280;71598;46.516;-122.928;2023-12-07T12:48:55;99406.78;;;18.67;24.27
81999;BME280;71598;46.516;-122.928;2023-12-07T12:51:14;99408.93;;;18.43;24.22
81999;BME280;71598;46.516;-122.928;2023-12-07T12:53:43;99405.13;;;18.48;24.19
81999;BME280;71598;46.516;-122.928;2023-12-07T12:56:02;99405.00;;;18.46;24.15